sensor_id;sensor_type;location;lat;lon;timestamp;temperature;humidity
2657;DHT22;1338;48.176;11.792;2023-05-21T00:00:21;15.50;99.90
2657;DHT22;1338;48.176;11.792;2023-05-21T00:02:49;15.30;99.90
2657;DHT22;1338;48.176;11.792;2023-05-21T00:05:18;15.40;99.90
2657;DHT22;1338;48.176;11.792;2023-05-21T00:07:47;15.40;99.90
2657;DHT22;1338;48.176;11.792;2023-05-21T00:10:19;15.20;99.90
2657;DHT22;1338;48.176;11.792;2023-05-21T00:12:47;15.10;99.90
2657;DHT22;1338;48.176;11.792;2023-05-21T00:15:15;15.10;99.90
2657;DHT22;1338;48.176;11.792;2023-05-21T00:17:44;15.10;99.90
2657;DHT22;1338;48.176;11.792;2023-05-21T00:20:13;15.20;99.90
2657;DHT22;1338;48.176;11.792;2023-05-21T00:22:42;15.40;99.90
2657;DHT22;1338;48.176;11.792;2023-05-21T00:25:10;15.40;99.90
2657;DHT22;1338;48.176;11.792;2023-05-21T00:27:38;15.30;99.90
2657;DHT22;1338;48.176;11.792;2023-05-21T00:30:07;15.20;99.90
2657;DHT22;1338;48.176;11.792;2023-05-21T00:32:37;15.30;99.90
2657;DHT22;1338;48.176;11.792;2023-05-21T00:35:08;15.10;99.90
2657;DHT22;1338;48.176;11.792;2023-05-21T00:37:36;15.20;99.90
2657;DHT22;1338;48.176;11.792;2023-05-21T00:40:05;15.40;99.90
2657;DHT22;1338;48.176;11.792;2023-05-21T00:42:34;15.50;99.90
2657;DHT22;1338;48.176;11.792;2023-05-21T00:45:07;15.10;99.90
2657;DHT22;1338;48.176;11.792;2023-05-21T00:47:35;15.00;99.90
2657;DHT22;1338;48.176;11.792;2023-05-21T00:50:07;15.20;99.90
2657;DHT22;1338;48.176;11.792;2023-05-21T00:52:35;15.40;99.90
2657;DHT22;1338;48.176;11.792;2023-05-21T00:55:08;15.00;99.90
2657;DHT22;1338;48.176;11.792;2023-05-21T00:57:37;14.90;99.90
2657;DHT22;1338;48.176;11.792;2023-05-21T01:00:07;14.70;99.90
2657;DHT22;1338;48.176;11.792;2023-05-21T01:02:37;14.90;99.90
2657;DHT22;1338;48.176;11.792;2023-05-21T01:05:08;14.70;99.90
2657;DHT22;1338;48.176;11.792;2023-05-21T01:07:38;14.60;99.90
2657;DHT22;1338;48.176;11.792;2023-05-21T01:10:09;14.60;99.90
2657;DHT22;1338;48.176;11.792;2023-05-21T01:12:38;14.80;99.90
2657;DHT22;1338;48.176;11.792;2023-05-21T01:15:09;14.90;99.90
2657;DHT22;1338;48.176;11.792;2023-05-21T01:17:38;14.80;99.90
2657;DHT22;1338;48.176;11.792;2023-05-21T01:20:09;14.90;99.90
2657;DHT22;1338;48.176;11.792;2023-05-21T01:25:11;15.00;99.90
2657;DHT22;1338;48.176;11.792;2023-05-21T01:27:40;14.80;99.90
2657;DHT22;1338;48.176;11.792;2023-05-21T01:30:10;14.70;99.90
2657;DHT22;1338;48.176;11.792;2023-05-21T01:32:43;14.90;99.90
2657;DHT22;1338;48.176;11.792;2023-05-21T01:35:19;15.00;99.90
2657;DHT22;1338;48.176;11.792;2023-05-21T01:37:51;14.80;99.90
2657;DHT22;1338;48.176;11.792;2023-05-21T01:40:25;14.80;99.90
2657;DHT22;1338;48.176;11.792;2023-05-21T01:42:57;14.70;99.90
2657;DHT22;1338;48.176;11.792;2023-05-21T01:45:28;14.90;99.90
2657;DHT22;1338;48.176;11.792;2023-05-21T01:47:57;14.80;99.90
2657;DHT22;1338;48.176;11.792;2023-05-21T01:50:26;14.70;99.90
2657;DHT22;1338;48.176;11.792;2023-05-21T01:52:55;14.60;99.90
2657;DHT22;1338;48.176;11.792;2023-05-21T01:55:25;14.50;99.90
2657;DHT22;1338;48.176;11.792;2023-05-21T01:57:57;14.40;99.90
2657;DHT22;1338;48.176;11.792;2023-05-21T02:00:28;14.40;99.90
2657;DHT22;1338;48.176;11.792;2023-05-21T02:02:58;14.40;99.90
2657;DHT22;1338;48.176;11.792;2023-05-21T02:05:27;14.60;99.90
2657;DHT22;1338;48.176;11.792;2023-05-21T02:07:57;14.60;99.90
2657;DHT22;1338;48.176;11.792;2023-05-21T02:10:28;14.80;99.90
2657;DHT22;1338;48.176;11.792;2023-05-21T02:12:56;14.60;99.90
2657;DHT22;1338;48.176;11.792;2023-05-21T02:15:25;14.30;99.90
2657;DHT22;1338;48.176;11.792;2023-05-21T02:17:53;14.50;99.90
2657;DHT22;1338;48.176;11.792;2023-05-21T02:20:21;14.50;99.90
2657;DHT22;1338;48.176;11.792;2023-05-21T02:22:50;14.50;99.90
2657;DHT22;1338;48.176;11.792;2023-05-21T02:25:18;14.20;99.90
2657;DHT22;1338;48.176;11.792;2023-05-21T02:27:48;14.30;99.90
2657;DHT22;1338;48.176;11.792;2023-05-21T02:30:19;14.20;99.90
2657;DHT22;1338;48.176;11.792;2023-05-21T02:32:48;14.50;99.90
2657;DHT22;1338;48.176;11.792;2023-05-21T02:35:16;14.40;99.90
2657;DHT22;1338;48.176;11.792;2023-05-21T02:37:44;14.20;99.90
2657;DHT22;1338;48.176;11.792;2023-05-21T02:40:14;14.00;99.90
2657;DHT22;1338;48.176;11.792;2023-05-21T02:42:42;14.00;99.90
2657;DHT22;1338;48.176;11.792;2023-05-21T02:45:16;14.00;99.90
2657;DHT22;1338;48.176;11.792;2023-05-21T02:47:45;13.90;99.90
2657;DHT22;1338;48.176;11.792;2023-05-21T02:50:16;14.10;99.90
2657;DHT22;1338;48.176;11.792;2023-05-21T02:52:51;14.10;99.90
2657;DHT22;1338;48.176;11.792;2023-05-21T02:55:19;14.40;99.90
2657;DHT22;1338;48.176;11.792;2023-05-21T02:57:49;14.10;99.90
2657;DHT22;1338;48.176;11.792;2023-05-21T03:00:19;14.20;99.90
2657;DHT22;1338;48.176;11.792;2023-05-21T03:02:47;14.20;99.90
2657;DHT22;1338;48.176;11.792;2023-05-21T03:05:15;14.00;99.90
2657;DHT22;1338;48.176;11.792;2023-05-21T03:07:43;13.80;99.90
2657;DHT22;1338;48.176;11.792;2023-05-21T03:10:12;13.90;99.90
2657;DHT22;1338;48.176;11.792;2023-05-21T03:12:40;13.90;99.90
2657;DHT22;1338;48.176;11.792;2023-05-21T03:15:09;14.20;99.90
2657;DHT22;1338;48.176;11.792;2023-05-21T03:17:42;14.00;99.90
2657;DHT22;1338;48.176;11.792;2023-05-21T03:20:11;14.10;99.90
2657;DHT22;1338;48.176;11.792;2023-05-21T03:22:42;13.90;99.90
2657;DHT22;1338;48.176;11.792;2023-05-21T03:25:11;13.90;99.90
2657;DHT22;1338;48.176;11.792;2023-05-21T03:27:39;13.90;99.90
2657;DHT22;1338;48.176;11.792;2023-05-21T03:30:33;14.00;99.90
2657;DHT22;1338;48.176;11.792;2023-05-21T03:33:26;13.80;99.90
2657;DHT22;1338;48.176;11.792;2023-05-21T03:35:54;13.70;99.90
2657;DHT22;1338;48.176;11.792;2023-05-21T03:38:25;13.80;99.90
2657;DHT22;1338;48.176;11.792;2023-05-21T03:40:54;13.90;99.90
2657;DHT22;1338;48.176;11.792;2023-05-21T03:43:23;13.80;99.90
2657;DHT22;1338;48.176;11.792;2023-05-21T03:45:53;13.80;99.90
2657;DHT22;1338;48.176;11.792;2023-05-21T03:48:42;14.00;99.90
2657;DHT22;1338;48.176;11.792;2023-05-21T03:51:14;13.80;99.90
2657;DHT22;1338;48.176;11.792;2023-05-21T03:53:44;13.70;99.90
2657;DHT22;1338;48.176;11.792;2023-05-21T03:56:13;13.90;99.90
2657;DHT22;1338;48.176;11.792;2023-05-21T03:58:41;13.50;99.90
2657;DHT22;1338;48.176;11.792;2023-05-21T04:01:10;13.80;99.90
2657;DHT22;1338;48.176;11.792;2023-05-21T04:03:40;13.60;99.90
2657;DHT22;1338;48.176;11.792;2023-05-21T04:06:14;13.70;99.90
2657;DHT22;1338;48.176;11.792;2023-05-21T04:08:44;13.60;99.90
2657;DHT22;1338;48.176;11.792;2023-05-21T04:11:13;13.80;99.90
2657;DHT22;1338;48.176;11.792;2023-05-21T04:13:42;13.70;99.90
2657;DHT22;1338;48.176;11.792;2023-05-21T04:16:13;14.10;99.90
2657;DHT22;1338;48.176;11.792;2023-05-21T04:18:46;13.80;99.90
2657;DHT22;1338;48.176;11.792;2023-05-21T04:21:17;14.00;99.90
2657;DHT22;1338;48.176;11.792;2023-05-21T04:23:45;13.90;99.90
2657;DHT22;1338;48.176;11.792;2023-05-21T04:26:32;13.90;99.90
2657;DHT22;1338;48.176;11.792;2023-05-21T04:29:02;14.00;99.90
2657;DHT22;1338;48.176;11.792;2023-05-21T04:31:31;14.00;99.90
2657;DHT22;1338;48.176;11.792;2023-05-21T04:34:02;14.00;99.90
2657;DHT22;1338;48.176;11.792;2023-05-21T04:36:34;14.00;99.90
2657;DHT22;1338;48.176;11.792;2023-05-21T04:39:02;14.00;99.90
2657;DHT22;1338;48.176;11.792;2023-05-21T04:41:33;14.00;99.90
2657;DHT22;1338;48.176;11.792;2023-05-21T04:44:03;14.30;99.90
2657;DHT22;1338;48.176;11.792;2023-05-21T04:46:33;14.30;99.90
2657;DHT22;1338;48.176;11.792;2023-05-21T04:49:02;14.40;99.90
2657;DHT22;1338;48.176;11.792;2023-05-21T04:51:31;14.40;99.90
2657;DHT22;1338;48.176;11.792;2023-05-21T04:54:05;14.30;99.90
2657;DHT22;1338;48.176;11.792;2023-05-21T04:56:34;14.60;99.90
2657;DHT22;1338;48.176;11.792;2023-05-21T04:59:04;14.50;99.90
2657;DHT22;1338;48.176;11.792;2023-05-21T05:01:34;14.40;99.90
2657;DHT22;1338;48.176;11.792;2023-05-21T05:04:04;14.50;99.90
2657;DHT22;1338;48.176;11.792;2023-05-21T05:06:34;14.70;99.90
2657;DHT22;1338;48.176;11.792;2023-05-21T05:09:02;14.60;99.90
2657;DHT22;1338;48.176;11.792;2023-05-21T05:11:34;14.80;99.90
2657;DHT22;1338;48.176;11.792;2023-05-21T05:14:03;14.80;99.90
2657;DHT22;1338;48.176;11.792;2023-05-21T05:16:32;14.90;99.90
2657;DHT22;1338;48.176;11.792;2023-05-21T05:19:01;14.80;99.90
2657;DHT22;1338;48.176;11.792;2023-05-21T05:21:30;14.80;99.90
2657;DHT22;1338;48.176;11.792;2023-05-21T05:24:00;14.90;99.90
2657;DHT22;1338;48.176;11.792;2023-05-21T05:26:30;14.90;99.90
2657;DHT22;1338;48.176;11.792;2023-05-21T05:29:01;14.90;99.90
2657;DHT22;1338;48.176;11.792;2023-05-21T05:31:30;15.10;99.90
2657;DHT22;1338;48.176;11.792;2023-05-21T05:33:59;15.10;99.90
2657;DHT22;1338;48.176;11.792;2023-05-21T05:36:28;15.10;99.90
2657;DHT22;1338;48.176;11.792;2023-05-21T05:38:57;15.10;99.90
2657;DHT22;1338;48.176;11.792;2023-05-21T05:41:26;15.20;99.90
2657;DHT22;1338;48.176;11.792;2023-05-21T05:43:55;15.30;99.90
2657;DHT22;1338;48.176;11.792;2023-05-21T05:46:29;15.40;99.90
2657;DHT22;1338;48.176;11.792;2023-05-21T05:48:58;15.40;99.90
2657;DHT22;1338;48.176;11.792;2023-05-21T05:51:27;15.50;99.90
2657;DHT22;1338;48.176;11.792;2023-05-21T05:53:56;15.60;99.90
2657;DHT22;1338;48.176;11.792;2023-05-21T05:56:26;15.70;99.90
2657;DHT22;1338;48.176;11.792;2023-05-21T05:58:55;15.80;99.90
2657;DHT22;1338;48.176;11.792;2023-05-21T06:01:24;15.80;99.90
2657;DHT22;1338;48.176;11.792;2023-05-21T06:03:55;15.80;99.90
2657;DHT22;1338;48.176;11.792;2023-05-21T06:06:24;15.90;99.90
2657;DHT22;1338;48.176;11.792;2023-05-21T06:08:53;15.90;99.90
2657;DHT22;1338;48.176;11.792;2023-05-21T06:11:22;16.00;99.90
2657;DHT22;1338;48.176;11.792;2023-05-21T06:13:51;16.10;99.90
2657;DHT22;1338;48.176;11.792;2023-05-21T06:16:21;16.10;99.90
2657;DHT22;1338;48.176;11.792;2023-05-21T06:18:50;16.30;99.90
2657;DHT22;1338;48.176;11.792;2023-05-21T06:21:21;16.30;99.90
2657;DHT22;1338;48.176;11.792;2023-05-21T06:23:51;16.30;99.90
2657;DHT22;1338;48.176;11.792;2023-05-21T06:26:20;16.40;99.90
2657;DHT22;1338;48.176;11.792;2023-05-21T06:28:51;16.40;99.90
2657;DHT22;1338;48.176;11.792;2023-05-21T06:31:20;16.40;99.90
2657;DHT22;1338;48.176;11.792;2023-05-21T06:33:50;16.50;99.90
2657;DHT22;1338;48.176;11.792;2023-05-21T06:36:21;16.60;99.90
2657;DHT22;1338;48.176;11.792;2023-05-21T06:38:54;16.80;99.90
2657;DHT22;1338;48.176;11.792;2023-05-21T06:41:23;16.60;99.90
2657;DHT22;1338;48.176;11.792;2023-05-21T06:43:57;16.60;99.90
2657;DHT22;1338;48.176;11.792;2023-05-21T06:46:46;16.80;99.90
2657;DHT22;1338;48.176;11.792;2023-05-21T06:49:17;16.90;99.90
2657;DHT22;1338;48.176;11.792;2023-05-21T06:51:48;16.80;99.90
2657;DHT22;1338;48.176;11.792;2023-05-21T06:54:17;16.80;99.90
2657;DHT22;1338;48.176;11.792;2023-05-21T06:56:46;16.90;99.90
2657;DHT22;1338;48.176;11.792;2023-05-21T06:59:15;17.00;99.90
2657;DHT22;1338;48.176;11.792;2023-05-21T07:01:44;17.00;99.90
2657;DHT22;1338;48.176;11.792;2023-05-21T07:04:14;17.20;99.90
2657;DHT22;1338;48.176;11.792;2023-05-21T07:06:43;17.10;99.90
2657;DHT22;1338;48.176;11.792;2023-05-21T07:09:14;17.20;99.90
2657;DHT22;1338;48.176;11.792;2023-05-21T07:11:45;17.30;99.90
2657;DHT22;1338;48.176;11.792;2023-05-21T07:14:15;17.30;99.90
2657;DHT22;1338;48.176;11.792;2023-05-21T07:16:44;17.40;99.90
2657;DHT22;1338;48.176;11.792;2023-05-21T07:19:14;17.40;99.90
2657;DHT22;1338;48.176;11.792;2023-05-21T07:21:46;17.60;99.90
2657;DHT22;1338;48.176;11.792;2023-05-21T07:24:17;17.40;99.90
2657;DHT22;1338;48.176;11.792;2023-05-21T07:26:45;17.60;99.90
2657;DHT22;1338;48.176;11.792;2023-05-21T07:29:15;17.60;99.90
2657;DHT22;1338;48.176;11.792;2023-05-21T07:31:44;17.70;99.90
2657;DHT22;1338;48.176;11.792;2023-05-21T07:34:14;17.90;99.90
2657;DHT22;1338;48.176;11.792;2023-05-21T07:36:43;17.80;99.90
2657;DHT22;1338;48.176;11.792;2023-05-21T07:39:13;18.00;99.90
2657;DHT22;1338;48.176;11.792;2023-05-21T07:41:44;18.10;99.90
2657;DHT22;1338;48.176;11.792;2023-05-21T07:44:14;18.30;99.90
2657;DHT22;1338;48.176;11.792;2023-05-21T07:46:44;18.40;99.90
2657;DHT22;1338;48.176;11.792;2023-05-21T07:49:15;17.70;99.90
2657;DHT22;1338;48.176;11.792;2023-05-21T07:51:46;17.90;99.90
2657;DHT22;1338;48.176;11.792;2023-05-21T07:54:15;18.30;99.90
2657;DHT22;1338;48.176;11.792;2023-05-21T07:56:50;17.80;99.90
2657;DHT22;1338;48.176;11.792;2023-05-21T07:59:40;18.30;99.90
2657;DHT22;1338;48.176;11.792;2023-05-21T08:02:10;18.40;99.90
2657;DHT22;1338;48.176;11.792;2023-05-21T08:04:39;18.00;99.90
2657;DHT22;1338;48.176;11.792;2023-05-21T08:07:10;18.50;99.90
2657;DHT22;1338;48.176;11.792;2023-05-21T08:09:40;18.80;99.90
2657;DHT22;1338;48.176;11.792;2023-05-21T08:12:11;19.10;99.90
2657;DHT22;1338;48.176;11.792;2023-05-21T08:14:42;18.90;99.90
2657;DHT22;1338;48.176;11.792;2023-05-21T08:17:13;19.30;99.90
2657;DHT22;1338;48.176;11.792;2023-05-21T08:19:41;19.20;99.90
2657;DHT22;1338;48.176;11.792;2023-05-21T08:22:10;19.50;99.90
2657;DHT22;1338;48.176;11.792;2023-05-21T08:24:43;19.40;99.90
2657;DHT22;1338;48.176;11.792;2023-05-21T08:27:14;19.10;99.90
2657;DHT22;1338;48.176;11.792;2023-05-21T08:29:43;19.30;99.90
2657;DHT22;1338;48.176;11.792;2023-05-21T08:32:12;18.90;99.90
2657;DHT22;1338;48.176;11.792;2023-05-21T08:34:43;19.30;99.90
2657;DHT22;1338;48.176;11.792;2023-05-21T08:37:38;19.90;99.90
2657;DHT22;1338;48.176;11.792;2023-05-21T08:40:23;19.80;99.90
2657;DHT22;1338;48.176;11.792;2023-05-21T08:42:54;20.20;99.90
2657;DHT22;1338;48.176;11.792;2023-05-21T08:45:36;20.20;99.90
2657;DHT22;1338;48.176;11.792;2023-05-21T08:48:10;21.00;99.90
2657;DHT22;1338;48.176;11.792;2023-05-21T08:50:40;21.10;95.70
2657;DHT22;1338;48.176;11.792;2023-05-21T08:53:15;20.70;91.50
2657;DHT22;1338;48.176;11.792;2023-05-21T08:55:56;22.00;83.30
2657;DHT22;1338;48.176;11.792;2023-05-21T08:58:39;21.80;63.60
2657;DHT22;1338;48.176;11.792;2023-05-21T09:01:19;22.10;63.50
2657;DHT22;1338;48.176;11.792;2023-05-21T09:04:02;22.60;36.30
2657;DHT22;1338;48.176;11.792;2023-05-21T09:06:49;21.40;29.80
2657;DHT22;1338;48.176;11.792;2023-05-21T09:09:32;22.80;19.70
2657;DHT22;1338;48.176;11.792;2023-05-21T09:12:02;23.40;1.80
2657;DHT22;1338;48.176;11.792;2023-05-21T09:14:34;23.40;1.00
2657;DHT22;1338;48.176;11.792;2023-05-21T09:17:12;22.70;1.00
2657;DHT22;1338;48.176;11.792;2023-05-21T09:20:08;24.10;1.00
2657;DHT22;1338;48.176;11.792;2023-05-21T09:22:49;24.60;1.00
2657;DHT22;1338;48.176;11.792;2023-05-21T09:25:22;23.40;1.00
2657;DHT22;1338;48.176;11.792;2023-05-21T09:27:50;22.60;1.00
2657;DHT22;1338;48.176;11.792;2023-05-21T09:30:21;23.30;1.00
2657;DHT22;1338;48.176;11.792;2023-05-21T09:32:57;23.20;1.00
2657;DHT22;1338;48.176;11.792;2023-05-21T09:35:26;22.60;1.00
2657;DHT22;1338;48.176;11.792;2023-05-21T09:37:55;23.90;1.00
2657;DHT22;1338;48.176;11.792;2023-05-21T09:40:24;23.60;1.00
2657;DHT22;1338;48.176;11.792;2023-05-21T09:43:01;24.30;1.00
2657;DHT22;1338;48.176;11.792;2023-05-21T09:45:33;24.60;1.00
2657;DHT22;1338;48.176;11.792;2023-05-21T09:48:03;24.10;1.00
2657;DHT22;1338;48.176;11.792;2023-05-21T09:50:35;23.50;1.00
2657;DHT22;1338;48.176;11.792;2023-05-21T09:53:10;24.30;1.00
2657;DHT22;1338;48.176;11.792;2023-05-21T09:55:39;24.60;1.00
2657;DHT22;1338;48.176;11.792;2023-05-21T09:58:09;23.80;1.00
2657;DHT22;1338;48.176;11.792;2023-05-21T10:00:40;23.20;1.00
2657;DHT22;1338;48.176;11.792;2023-05-21T10:03:11;23.40;1.00
2657;DHT22;1338;48.176;11.792;2023-05-21T10:05:41;24.70;1.00
2657;DHT22;1338;48.176;11.792;2023-05-21T10:08:13;24.50;1.00
2657;DHT22;1338;48.176;11.792;2023-05-21T10:10:43;23.40;1.00
2657;DHT22;1338;48.176;11.792;2023-05-21T10:13:14;23.30;1.00
2657;DHT22;1338;48.176;11.792;2023-05-21T10:15:52;23.50;1.00
2657;DHT22;1338;48.176;11.792;2023-05-21T10:18:22;24.00;1.00
2657;DHT22;1338;48.176;11.792;2023-05-21T10:20:52;23.70;1.00
2657;DHT22;1338;48.176;11.792;2023-05-21T10:23:22;23.90;1.00
2657;DHT22;1338;48.176;11.792;2023-05-21T10:25:53;23.80;1.00
2657;DHT22;1338;48.176;11.792;2023-05-21T10:28:23;23.90;1.00
2657;DHT22;1338;48.176;11.792;2023-05-21T10:30:53;22.80;1.00
2657;DHT22;1338;48.176;11.792;2023-05-21T10:33:22;24.40;1.00
2657;DHT22;1338;48.176;11.792;2023-05-21T10:35:52;24.10;1.00
2657;DHT22;1338;48.176;11.792;2023-05-21T10:38:22;23.30;1.00
2657;DHT22;1338;48.176;11.792;2023-05-21T10:40:52;23.80;1.00
2657;DHT22;1338;48.176;11.792;2023-05-21T10:43:36;23.70;1.00
2657;DHT22;1338;48.176;11.792;2023-05-21T10:49:39;25.10;1.00
2657;DHT22;1338;48.176;11.792;2023-05-21T10:55:12;25.80;1.00
2657;DHT22;1338;48.176;11.792;2023-05-21T10:58:08;25.80;1.00
2657;DHT22;1338;48.176;11.792;2023-05-21T11:00:41;25.50;1.00
2657;DHT22;1338;48.176;11.792;2023-05-21T11:03:13;25.90;1.00
2657;DHT22;1338;48.176;11.792;2023-05-21T11:08:26;25.70;1.00
2657;DHT22;1338;48.176;11.792;2023-05-21T11:10:57;25.70;1.00
2657;DHT22;1338;48.176;11.792;2023-05-21T11:13:27;26.40;1.00
2657;DHT22;1338;48.176;11.792;2023-05-21T11:16:06;27.00;1.00
2657;DHT22;1338;48.176;11.792;2023-05-21T11:18:59;26.00;1.00
2657;DHT22;1338;48.176;11.792;2023-05-21T11:21:33;26.80;1.00
2657;DHT22;1338;48.176;11.792;2023-05-21T11:24:04;26.00;1.00
2657;DHT22;1338;48.176;11.792;2023-05-21T11:27:00;27.10;1.00
2657;DHT22;1338;48.176;11.792;2023-05-21T11:29:43;27.30;1.00
2657;DHT22;1338;48.176;11.792;2023-05-21T11:32:13;28.50;1.00
2657;DHT22;1338;48.176;11.792;2023-05-21T11:34:48;27.30;1.00
2657;DHT22;1338;48.176;11.792;2023-05-21T11:37:31;28.30;1.00
2657;DHT22;1338;48.176;11.792;2023-05-21T11:40:17;27.50;1.00
2657;DHT22;1338;48.176;11.792;2023-05-21T11:42:50;26.70;1.00
2657;DHT22;1338;48.176;11.792;2023-05-21T11:45:20;27.10;1.00
2657;DHT22;1338;48.176;11.792;2023-05-21T11:47:50;27.20;1.00
2657;DHT22;1338;48.176;11.792;2023-05-21T11:50:21;27.40;1.00
2657;DHT22;1338;48.176;11.792;2023-05-21T11:52:51;27.00;1.00
2657;DHT22;1338;48.176;11.792;2023-05-21T11:55:23;27.20;1.00
2657;DHT22;1338;48.176;11.792;2023-05-21T11:57:55;27.80;1.00
2657;DHT22;1338;48.176;11.792;2023-05-21T12:00:25;27.80;1.00
2657;DHT22;1338;48.176;11.792;2023-05-21T12:02:59;28.30;1.00
2657;DHT22;1338;48.176;11.792;2023-05-21T12:05:29;28.00;1.00
2657;DHT22;1338;48.176;11.792;2023-05-21T12:08:00;27.30;1.00
2657;DHT22;1338;48.176;11.792;2023-05-21T12:10:30;28.60;1.00
2657;DHT22;1338;48.176;11.792;2023-05-21T12:13:02;29.70;1.00
2657;DHT22;1338;48.176;11.792;2023-05-21T12:15:33;29.10;1.00
2657;DHT22;1338;48.176;11.792;2023-05-21T12:18:02;29.00;1.00
2657;DHT22;1338;48.176;11.792;2023-05-21T12:20:33;28.80;1.00
2657;DHT22;1338;48.176;11.792;2023-05-21T12:23:02;27.60;1.00
2657;DHT22;1338;48.176;11.792;2023-05-21T12:25:32;29.80;1.00
2657;DHT22;1338;48.176;11.792;2023-05-21T12:28:01;30.00;1.00
2657;DHT22;1338;48.176;11.792;2023-05-21T12:30:31;30.30;1.00
2657;DHT22;1338;48.176;11.792;2023-05-21T12:33:01;30.50;1.00
2657;DHT22;1338;48.176;11.792;2023-05-21T12:35:36;30.10;1.00
2657;DHT22;1338;48.176;11.792;2023-05-21T12:38:06;29.00;1.00
2657;DHT22;1338;48.176;11.792;2023-05-21T12:43:10;30.30;1.00
2657;DHT22;1338;48.176;11.792;2023-05-21T12:48:09;28.40;1.00
2657;DHT22;1338;48.176;11.792;2023-05-21T12:50:45;28.50;1.00
2657;DHT22;1338;48.176;11.792;2023-05-21T12:53:17;28.60;1.00
2657;DHT22;1338;48.176;11.792;2023-05-21T12:55:47;30.20;1.00
2657;DHT22;1338;48.176;11.792;2023-05-21T12:58:21;29.30;1.00
2657;DHT22;1338;48.176;11.792;2023-05-21T13:00:49;28.60;1.00
2657;DHT22;1338;48.176;11.792;2023-05-21T13:03:18;30.00;1.00
2657;DHT22;1338;48.176;11.792;2023-05-21T13:08:27;28.60;1.00
2657;DHT22;1338;48.176;11.792;2023-05-21T13:10:56;29.40;1.00
2657;DHT22;1338;48.176;11.792;2023-05-21T13:13:25;30.00;1.00
2657;DHT22;1338;48.176;11.792;2023-05-21T13:15:54;30.10;1.00
2657;DHT22;1338;48.176;11.792;2023-05-21T13:18:23;28.90;1.00
2657;DHT22;1338;48.176;11.792;2023-05-21T13:20:58;27.80;1.00
2657;DHT22;1338;48.176;11.792;2023-05-21T13:23:27;28.60;1.00
2657;DHT22;1338;48.176;11.792;2023-05-21T13:25:58;29.80;1.00
2657;DHT22;1338;48.176;11.792;2023-05-21T13:28:31;29.20;1.00
2657;DHT22;1338;48.176;11.792;2023-05-21T13:30:59;27.60;1.00
2657;DHT22;1338;48.176;11.792;2023-05-21T13:33:29;27.70;1.00
2657;DHT22;1338;48.176;11.792;2023-05-21T13:36:01;28.20;1.00
2657;DHT22;1338;48.176;11.792;2023-05-21T13:38:29;27.70;1.00
2657;DHT22;1338;48.176;11.792;2023-05-21T13:40:58;27.50;1.00
2657;DHT22;1338;48.176;11.792;2023-05-21T13:43:27;27.70;1.00
2657;DHT22;1338;48.176;11.792;2023-05-21T13:45:56;27.30;1.00
2657;DHT22;1338;48.176;11.792;2023-05-21T13:48:25;28.10;1.00
2657;DHT22;1338;48.176;11.792;2023-05-21T13:50:53;27.70;1.00
2657;DHT22;1338;48.176;11.792;2023-05-21T13:53:24;26.80;1.00
2657;DHT22;1338;48.176;11.792;2023-05-21T13:55:53;27.10;1.00
2657;DHT22;1338;48.176;11.792;2023-05-21T13:58:22;27.90;1.00
2657;DHT22;1338;48.176;11.792;2023-05-21T14:00:51;27.40;1.00
2657;DHT22;1338;48.176;11.792;2023-05-21T14:03:20;27.80;1.00
2657;DHT22;1338;48.176;11.792;2023-05-21T14:05:49;28.20;1.00
2657;DHT22;1338;48.176;11.792;2023-05-21T14:08:20;29.10;1.00
2657;DHT22;1338;48.176;11.792;2023-05-21T14:10:52;29.20;1.00
2657;DHT22;1338;48.176;11.792;2023-05-21T14:13:21;29.70;1.00
2657;DHT22;1338;48.176;11.792;2023-05-21T14:15:49;29.10;1.00
2657;DHT22;1338;48.176;11.792;2023-05-21T14:18:18;28.60;1.00
2657;DHT22;1338;48.176;11.792;2023-05-21T14:20:47;29.10;1.00
2657;DHT22;1338;48.176;11.792;2023-05-21T14:23:16;28.90;1.00
2657;DHT22;1338;48.176;11.792;2023-05-21T14:25:44;29.20;1.00
2657;DHT22;1338;48.176;11.792;2023-05-21T14:28:17;28.20;1.00
2657;DHT22;1338;48.176;11.792;2023-05-21T14:30:46;28.90;1.00
2657;DHT22;1338;48.176;11.792;2023-05-21T14:33:15;27.50;1.00
2657;DHT22;1338;48.176;11.792;2023-05-21T14:35:43;28.00;1.00
2657;DHT22;1338;48.176;11.792;2023-05-21T14:38:13;28.40;1.00
2657;DHT22;1338;48.176;11.792;2023-05-21T14:40:42;28.20;1.00
2657;DHT22;1338;48.176;11.792;2023-05-21T14:43:11;28.30;1.00
2657;DHT22;1338;48.176;11.792;2023-05-21T14:45:41;28.20;1.00
2657;DHT22;1338;48.176;11.792;2023-05-21T14:48:10;28.40;1.00
2657;DHT22;1338;48.176;11.792;2023-05-21T14:50:39;28.00;1.00
2657;DHT22;1338;48.176;11.792;2023-05-21T14:53:09;28.50;1.00
2657;DHT22;1338;48.176;11.792;2023-05-21T14:55:38;29.80;1.00
2657;DHT22;1338;48.176;11.792;2023-05-21T14:58:07;30.40;1.00
2657;DHT22;1338;48.176;11.792;2023-05-21T15:00:36;28.90;1.00
2657;DHT22;1338;48.176;11.792;2023-05-21T15:03:06;29.70;1.00
2657;DHT22;1338;48.176;11.792;2023-05-21T15:05:38;29.50;1.00
2657;DHT22;1338;48.176;11.792;2023-05-21T15:08:06;29.10;1.00
2657;DHT22;1338;48.176;11.792;2023-05-21T15:10:35;29.40;1.00
2657;DHT22;1338;48.176;11.792;2023-05-21T15:13:04;29.40;1.00
2657;DHT22;1338;48.176;11.792;2023-05-21T15:15:34;28.80;1.00
2657;DHT22;1338;48.176;11.792;2023-05-21T15:18:03;28.60;1.00
2657;DHT22;1338;48.176;11.792;2023-05-21T15:20:34;27.70;1.00
2657;DHT22;1338;48.176;11.792;2023-05-21T15:23:02;28.20;1.00
2657;DHT22;1338;48.176;11.792;2023-05-21T15:25:42;28.50;1.00
2657;DHT22;1338;48.176;11.792;2023-05-21T15:28:11;28.30;1.00
2657;DHT22;1338;48.176;11.792;2023-05-21T15:30:40;29.30;1.00
2657;DHT22;1338;48.176;11.792;2023-05-21T15:33:10;29.40;1.00
2657;DHT22;1338;48.176;11.792;2023-05-21T15:35:40;28.70;1.00
2657;DHT22;1338;48.176;11.792;2023-05-21T15:38:09;28.50;1.00
2657;DHT22;1338;48.176;11.792;2023-05-21T15:40:39;28.50;1.00
2657;DHT22;1338;48.176;11.792;2023-05-21T15:43:08;28.70;1.00
2657;DHT22;1338;48.176;11.792;2023-05-21T15:45:37;28.30;1.00
2657;DHT22;1338;48.176;11.792;2023-05-21T15:48:06;28.50;1.00
2657;DHT22;1338;48.176;11.792;2023-05-21T15:50:35;28.70;1.00
2657;DHT22;1338;48.176;11.792;2023-05-21T15:53:05;28.70;1.00
2657;DHT22;1338;48.176;11.792;2023-05-21T15:55:34;28.30;1.00
2657;DHT22;1338;48.176;11.792;2023-05-21T15:58:04;28.80;1.00
2657;DHT22;1338;48.176;11.792;2023-05-21T16:00:32;28.30;1.00
2657;DHT22;1338;48.176;11.792;2023-05-21T16:03:01;27.70;1.00
2657;DHT22;1338;48.176;11.792;2023-05-21T16:05:30;27.50;1.00
2657;DHT22;1338;48.176;11.792;2023-05-21T16:07:59;28.20;1.00
2657;DHT22;1338;48.176;11.792;2023-05-21T16:10:29;27.60;1.00
2657;DHT22;1338;48.176;11.792;2023-05-21T16:12:59;27.40;1.00
2657;DHT22;1338;48.176;11.792;2023-05-21T16:15:28;27.30;1.00
2657;DHT22;1338;48.176;11.792;2023-05-21T16:17:58;27.10;1.00
2657;DHT22;1338;48.176;11.792;2023-05-21T16:20:27;27.60;1.00
2657;DHT22;1338;48.176;11.792;2023-05-21T16:22:56;27.30;1.00
2657;DHT22;1338;48.176;11.792;2023-05-21T16:25:25;27.10;1.00
2657;DHT22;1338;48.176;11.792;2023-05-21T16:27:57;27.60;1.00
2657;DHT22;1338;48.176;11.792;2023-05-21T16:30:25;27.30;1.00
2657;DHT22;1338;48.176;11.792;2023-05-21T16:32:56;26.60;1.00
2657;DHT22;1338;48.176;11.792;2023-05-21T16:35:25;27.70;1.00